sensor_id;sensor_type;location;lat;lon;timestamp;pressure;altitude;pressure_sealevel;temperature;humidity
20009;BME280;10165;42.662;23.260;2023-05-07T00:01:22;94345.44;;;15.68;54.32
20009;BME280;10165;42.662;23.260;2023-05-07T00:03:49;94343.38;;;15.51;54.76
20009;BME280;10165;42.662;23.260;2023-05-07T00:06:16;94349.97;;;15.23;55.47
20009;BME280;10165;42.662;23.260;2023-05-07T00:08:43;94341.19;;;15.63;54.89
20009;BME280;10165;42.662;23.260;2023-05-07T00:11:10;94347.19;;;15.50;55.11
20009;BME280;10165;42.662;23.260;2023-05-07T00:13:36;94341.66;;;15.72;54.49
20009;BME280;10165;42.662;23.260;2023-05-07T00:16:04;94341.44;;;15.51;55.00
20009;BME280;10165;42.662;23.260;2023-05-07T00:18:31;94335.91;;;15.74;54.58
20009;BME280;10165;42.662;23.260;2023-05-07T00:20:57;94330.28;;;15.90;54.00
20009;BME280;10165;42.662;23.260;2023-05-07T00:23:24;94325.13;;;15.74;54.20
20009;BME280;10165;42.662;23.260;2023-05-07T00:25:51;94329.75;;;14.73;56.97
20009;BME280;10165;42.662;23.260;2023-05-07T00:28:17;94339.56;;;13.87;60.22
20009;BME280;10165;42.662;23.260;2023-05-07T00:30:44;94338.25;;;14.26;60.00
20009;BME280;10165;42.662;23.260;2023-05-07T00:33:11;94334.56;;;14.34;59.14
20009;BME280;10165;42.662;23.260;2023-05-07T00:35:38;94330.34;;;14.11;59.00
20009;BME280;10165;42.662;23.260;2023-05-07T00:38:04;94335.72;;;13.88;60.08
20009;BME280;10165;42.662;23.260;2023-05-07T00:40:32;94330.81;;;14.39;59.12
20009;BME280;10165;42.662;23.260;2023-05-07T00:42:59;94332.44;;;14.73;58.01
20009;BME280;10165;42.662;23.260;2023-05-07T00:45:27;94335.16;;;15.07;56.91
20009;BME280;10165;42.662;23.260;2023-05-07T00:47:59;94344.56;;;14.90;56.77
20009;BME280;10165;42.662;23.260;2023-05-07T00:50:28;94339.75;;;14.76;57.06
20009;BME280;10165;42.662;23.260;2023-05-07T00:52:55;94341.31;;;14.77;57.11
20009;BME280;10165;42.662;23.260;2023-05-07T00:55:23;94337.34;;;14.98;56.47
20009;BME280;10165;42.662;23.260;2023-05-07T00:57:50;94343.00;;;14.59;56.99
20009;BME280;10165;42.662;23.260;2023-05-07T01:00:17;94343.03;;;14.10;58.94
20009;BME280;10165;42.662;23.260;2023-05-07T01:02:44;94346.97;;;13.29;61.66
20009;BME280;10165;42.662;23.260;2023-05-07T01:05:15;94350.66;;;13.21;61.96
20009;BME280;10165;42.662;23.260;2023-05-07T01:07:44;94346.84;;;13.22;62.00
20009;BME280;10165;42.662;23.260;2023-05-07T01:10:12;94342.50;;;13.78;60.62
20009;BME280;10165;42.662;23.260;2023-05-07T01:12:39;94337.28;;;14.12;59.33
20009;BME280;10165;42.662;23.260;2023-05-07T01:15:08;94336.03;;;14.06;59.25
20009;BME280;10165;42.662;23.260;2023-05-07T01:17:37;94343.28;;;13.79;59.69
20009;BME280;10165;42.662;23.260;2023-05-07T01:20:05;94341.28;;;14.21;58.95
20009;BME280;10165;42.662;23.260;2023-05-07T01:22:34;94336.59;;;14.41;58.21
20009;BME280;10165;42.662;23.260;2023-05-07T01:25:04;94344.78;;;14.25;58.50
20009;BME280;10165;42.662;23.260;2023-05-07T01:27:31;94341.91;;;14.15;58.42
20009;BME280;10165;42.662;23.260;2023-05-07T01:29:59;94343.47;;;14.16;58.67
20009;BME280;10165;42.662;23.260;2023-05-07T01:32:33;94345.97;;;14.28;58.27
20009;BME280;10165;42.662;23.260;2023-05-07T01:35:03;94349.91;;;14.60;57.47
20009;BME280;10165;42.662;23.260;2023-05-07T01:37:32;94343.88;;;14.67;57.38
20009;BME280;10165;42.662;23.260;2023-05-07T01:39:59;94339.16;;;14.60;57.54
20009;BME280;10165;42.662;23.260;2023-05-07T01:42:28;94332.25;;;14.59;57.51
20009;BME280;10165;42.662;23.260;2023-05-07T01:44:55;94329.34;;;14.71;57.13
20009;BME280;10165;42.662;23.260;2023-05-07T01:47:23;94329.00;;;14.47;57.95
20009;BME280;10165;42.662;23.260;2023-05-07T01:49:50;94325.59;;;13.78;59.13
20009;BME280;10165;42.662;23.260;2023-05-07T01:52:17;94324.81;;;13.32;61.17
20009;BME280;10165;42.662;23.260;2023-05-07T01:54:44;94319.66;;;13.04;62.22
20009;BME280;10165;42.662;23.260;2023-05-07T01:57:11;94309.84;;;13.31;62.03
20009;BME280;10165;42.662;23.260;2023-05-07T01:59:37;94318.56;;;13.47;61.44
20009;BME280;10165;42.662;23.260;2023-05-07T02:02:04;94307.94;;;13.31;61.97
20009;BME280;10165;42.662;23.260;2023-05-07T02:04:31;94319.84;;;12.95;63.13
20009;BME280;10165;42.662;23.260;2023-05-07T02:06:57;94312.91;;;13.10;62.96
20009;BME280;10165;42.662;23.260;2023-05-07T02:09:24;94316.69;;;12.71;63.93
20009;BME280;10165;42.662;23.260;2023-05-07T02:11:51;94313.34;;;13.35;62.22
20009;BME280;10165;42.662;23.260;2023-05-07T02:14:17;94306.81;;;13.55;61.69
20009;BME280;10165;42.662;23.260;2023-05-07T02:16:44;94305.81;;;13.40;62.37
20009;BME280;10165;42.662;23.260;2023-05-07T02:19:11;94304.13;;;13.55;61.47
20009;BME280;10165;42.662;23.260;2023-05-07T02:21:38;94294.28;;;13.85;60.17
20009;BME280;10165;42.662;23.260;2023-05-07T02:24:04;94303.63;;;14.18;59.57
20009;BME280;10165;42.662;23.260;2023-05-07T02:26:31;94290.72;;;14.04;59.32
20009;BME280;10165;42.662;23.260;2023-05-07T02:28:58;94299.25;;;13.83;59.27
20009;BME280;10165;42.662;23.260;2023-05-07T02:31:24;94305.44;;;13.42;60.53
20009;BME280;10165;42.662;23.260;2023-05-07T02:33:51;94304.78;;;13.07;62.00
20009;BME280;10165;42.662;23.260;2023-05-07T02:36:18;94296.94;;;13.17;62.01
20009;BME280;10165;42.662;23.260;2023-05-07T02:38:44;94305.47;;;13.04;62.07
20009;BME280;10165;42.662;23.260;2023-05-07T02:41:11;94308.91;;;12.46;63.39
20009;BME280;10165;42.662;23.260;2023-05-07T02:43:38;94304.19;;;12.59;63.88
20009;BME280;10165;42.662;23.260;2023-05-07T02:46:06;94305.81;;;13.02;62.66
20009;BME280;10165;42.662;23.260;2023-05-07T02:48:34;94306.81;;;13.32;62.09
20009;BME280;10165;42.662;23.260;2023-05-07T02:51:01;94306.75;;;13.29;61.99
20009;BME280;10165;42.662;23.260;2023-05-07T02:53:28;94307.81;;;12.86;63.33
20009;BME280;10165;42.662;23.260;2023-05-07T02:55:56;94309.47;;;13.32;62.51
20009;BME280;10165;42.662;23.260;2023-05-07T02:58:24;94313.41;;;13.38;62.49
20009;BME280;10165;42.662;23.260;2023-05-07T03:00:51;94307.94;;;13.31;62.54
20009;BME280;10165;42.662;23.260;2023-05-07T03:03:17;94310.97;;;13.30;62.47
20009;BME280;10165;42.662;23.260;2023-05-07T03:05:44;94314.09;;;12.93;63.03
20009;BME280;10165;42.662;23.260;2023-05-07T03:08:11;94324.72;;;12.52;64.60
20009;BME280;10165;42.662;23.260;2023-05-07T03:10:38;94320.88;;;12.68;64.17
20009;BME280;10165;42.662;23.260;2023-05-07T03:13:05;94327.53;;;13.35;62.46
20009;BME280;10165;42.662;23.260;2023-05-07T03:15:31;94326.59;;;13.47;61.55
20009;BME280;10165;42.662;23.260;2023-05-07T03:17:58;94332.09;;;13.54;61.51
20009;BME280;10165;42.662;23.260;2023-05-07T03:20:25;94322.19;;;13.58;61.03
20009;BME280;10165;42.662;23.260;2023-05-07T03:22:52;94327.31;;;13.44;61.75
20009;BME280;10165;42.662;23.260;2023-05-07T03:25:18;94330.88;;;13.71;61.06
20009;BME280;10165;42.662;23.260;2023-05-07T03:27:45;94325.88;;;13.96;60.16
20009;BME280;10165;42.662;23.260;2023-05-07T03:30:12;94329.78;;;13.53;60.84
20009;BME280;10165;42.662;23.260;2023-05-07T03:32:39;94328.94;;;13.49;60.84
20009;BME280;10165;42.662;23.260;2023-05-07T03:35:06;94329.56;;;13.42;61.39
20009;BME280;10165;42.662;23.260;2023-05-07T03:37:33;94335.13;;;13.30;61.39
20009;BME280;10165;42.662;23.260;2023-05-07T03:40:00;94343.59;;;13.13;62.39
20009;BME280;10165;42.662;23.260;2023-05-07T03:42:26;94341.88;;;13.43;62.01
20009;BME280;10165;42.662;23.260;2023-05-07T03:44:54;94342.19;;;13.61;61.13
20009;BME280;10165;42.662;23.260;2023-05-07T03:47:21;94340.09;;;13.73;61.04
20009;BME280;10165;42.662;23.260;2023-05-07T03:49:48;94343.28;;;13.79;60.53
20009;BME280;10165;42.662;23.260;2023-05-07T03:52:15;94345.13;;;13.98;60.32
20009;BME280;10165;42.662;23.260;2023-05-07T03:54:42;94346.53;;;13.69;61.20
20009;BME280;10165;42.662;23.260;2023-05-07T03:57:09;94342.94;;;13.61;62.18
20009;BME280;10165;42.662;23.260;2023-05-07T03:59:35;94338.75;;;13.83;61.81
20009;BME280;10165;42.662;23.260;2023-05-07T04:02:02;94347.75;;;13.71;62.13
20009;BME280;10165;42.662;23.260;2023-05-07T04:04:31;94355.13;;;14.01;61.33
20009;BME280;10165;42.662;23.260;2023-05-07T04:06:59;94360.72;;;13.69;61.31
20009;BME280;10165;42.662;23.260;2023-05-07T04:09:26;94363.06;;;13.29;62.60
20009;BME280;10165;42.662;23.260;2023-05-07T04:11:53;94370.00;;;13.11;63.92
20009;BME280;10165;42.662;23.260;2023-05-07T04:14:20;94384.78;;;13.62;62.85
20009;BME280;10165;42.662;23.260;2023-05-07T04:16:46;94377.91;;;13.87;61.93
20009;BME280;10165;42.662;23.260;2023-05-07T04:19:13;94384.38;;;14.06;61.24
20009;BME280;10165;42.662;23.260;2023-05-07T04:21:40;94381.53;;;14.18;61.31
20009;BME280;10165;42.662;23.260;2023-05-07T04:24:07;94383.38;;;14.37;60.49
20009;BME280;10165;42.662;23.260;2023-05-07T04:26:33;94386.41;;;14.35;60.64
20009;BME280;10165;42.662;23.260;2023-05-07T04:29:00;94390.34;;;14.41;60.45
20009;BME280;10165;42.662;23.260;2023-05-07T04:31:27;94389.38;;;14.07;61.03
20009;BME280;10165;42.662;23.260;2023-05-07T04:33:53;94395.91;;;13.83;61.69
20009;BME280;10165;42.662;23.260;2023-05-07T04:36:20;94396.63;;;13.61;61.58
20009;BME280;10165;42.662;23.260;2023-05-07T04:38:47;94403.50;;;13.59;62.36
20009;BME280;10165;42.662;23.260;2023-05-07T04:41:14;94400.06;;;13.20;62.87
20009;BME280;10165;42.662;23.260;2023-05-07T04:43:41;94397.94;;;13.29;62.89
20009;BME280;10165;42.662;23.260;2023-05-07T04:46:08;94411.63;;;13.43;62.63
20009;BME280;10165;42.662;23.260;2023-05-07T04:48:34;94415.72;;;14.21;61.00
20009;BME280;10165;42.662;23.260;2023-05-07T04:51:01;94405.38;;;14.46;60.09
20009;BME280;10165;42.662;23.260;2023-05-07T04:53:28;94400.66;;;13.94;61.06
20009;BME280;10165;42.662;23.260;2023-05-07T04:55:56;94401.44;;;13.71;62.31
20009;BME280;10165;42.662;23.260;2023-05-07T04:58:25;94396.59;;;13.38;63.85
20009;BME280;10165;42.662;23.260;2023-05-07T05:00:52;94397.81;;;13.83;62.78
20009;BME280;10165;42.662;23.260;2023-05-07T05:03:19;94395.16;;;14.32;61.65
20009;BME280;10165;42.662;23.260;2023-05-07T05:05:45;94385.88;;;14.49;60.70
20009;BME280;10165;42.662;23.260;2023-05-07T05:08:12;94398.19;;;14.79;60.03
20009;BME280;10165;42.662;23.260;2023-05-07T05:10:39;94397.06;;;14.54;60.36
20009;BME280;10165;42.662;23.260;2023-05-07T05:13:07;94389.84;;;14.58;61.09
20009;BME280;10165;42.662;23.260;2023-05-07T05:15:34;94393.56;;;14.27;60.88
20009;BME280;10165;42.662;23.260;2023-05-07T05:18:01;94394.53;;;14.65;60.79
20009;BME280;10165;42.662;23.260;2023-05-07T05:20:28;94385.22;;;14.85;60.21
20009;BME280;10165;42.662;23.260;2023-05-07T05:22:54;94395.25;;;14.62;60.40
20009;BME280;10165;42.662;23.260;2023-05-07T05:25:21;94390.13;;;14.79;60.11
20009;BME280;10165;42.662;23.260;2023-05-07T05:27:48;94393.25;;;14.32;61.46
20009;BME280;10165;42.662;23.260;2023-05-07T05:30:14;94395.47;;;14.27;61.34
20009;BME280;10165;42.662;23.260;2023-05-07T05:32:41;94405.09;;;14.05;62.91
20009;BME280;10165;42.662;23.260;2023-05-07T05:35:08;94394.56;;;14.42;61.60
20009;BME280;10165;42.662;23.260;2023-05-07T05:37:35;94398.09;;;14.72;60.31
20009;BME280;10165;42.662;23.260;2023-05-07T05:40:01;94400.25;;;14.90;60.54
20009;BME280;10165;42.662;23.260;2023-05-07T05:42:28;94402.50;;;15.14;59.86
20009;BME280;10165;42.662;23.260;2023-05-07T05:44:55;94407.25;;;15.24;59.16
20009;BME280;10165;42.662;23.260;2023-05-07T05:47:22;94393.00;;;15.23;59.58
20009;BME280;10165;42.662;23.260;2023-05-07T05:49:49;94401.72;;;15.76;58.33
20009;BME280;10165;42.662;23.260;2023-05-07T05:52:16;94393.69;;;15.84;57.96
20009;BME280;10165;42.662;23.260;2023-05-07T05:54:43;94397.78;;;15.37;59.50
20009;BME280;10165;42.662;23.260;2023-05-07T05:57:10;94399.84;;;14.88;60.68
20009;BME280;10165;42.662;23.260;2023-05-07T05:59:37;94409.19;;;15.27;59.87
20009;BME280;10165;42.662;23.260;2023-05-07T06:02:03;94403.44;;;15.58;59.41
20009;BME280;10165;42.662;23.260;2023-05-07T06:04:30;94396.66;;;16.12;57.66
20009;BME280;10165;42.662;23.260;2023-05-07T06:06:57;94399.09;;;15.84;58.40
20009;BME280;10165;42.662;23.260;2023-05-07T06:09:23;94403.06;;;15.97;57.95
20009;BME280;10165;42.662;23.260;2023-05-07T06:11:50;94404.66;;;16.01;58.35
20009;BME280;10165;42.662;23.260;2023-05-07T06:14:17;94401.41;;;15.85;57.81
20009;BME280;10165;42.662;23.260;2023-05-07T06:16:44;94396.66;;;16.12;57.55
20009;BME280;10165;42.662;23.260;2023-05-07T06:19:11;94396.75;;;15.78;57.40
20009;BME280;10165;42.662;23.260;2023-05-07T06:21:38;94400.09;;;15.68;57.51
20009;BME280;10165;42.662;23.260;2023-05-07T06:24:05;94400.56;;;15.77;58.03
20009;BME280;10165;42.662;23.260;2023-05-07T06:26:32;94405.25;;;15.17;59.27
20009;BME280;10165;42.662;23.260;2023-05-07T06:28:59;94391.50;;;15.93;57.59
20009;BME280;10165;42.662;23.260;2023-05-07T06:31:29;94393.34;;;16.29;57.00
20009;BME280;10165;42.662;23.260;2023-05-07T06:33:57;94384.50;;;16.29;56.86
20009;BME280;10165;42.662;23.260;2023-05-07T06:36:25;94384.38;;;16.58;56.16
20009;BME280;10165;42.662;23.260;2023-05-07T06:38:52;94384.97;;;16.41;56.51
20009;BME280;10165;42.662;23.260;2023-05-07T06:41:19;94387.16;;;16.25;56.91
20009;BME280;10165;42.662;23.260;2023-05-07T06:43:46;94373.09;;;16.49;56.78
20009;BME280;10165;42.662;23.260;2023-05-07T06:46:13;94377.22;;;16.87;55.22
20009;BME280;10165;42.662;23.260;2023-05-07T06:48:40;94378.97;;;17.34;54.07
20009;BME280;10165;42.662;23.260;2023-05-07T06:51:06;94373.41;;;16.95;54.60
20009;BME280;10165;42.662;23.260;2023-05-07T06:53:34;94368.09;;;17.13;53.38
20009;BME280;10165;42.662;23.260;2023-05-07T06:56:01;94369.25;;;17.12;54.00
20009;BME280;10165;42.662;23.260;2023-05-07T06:58:29;94366.28;;;17.42;53.34
20009;BME280;10165;42.662;23.260;2023-05-07T07:00:56;94367.81;;;17.36;53.71
20009;BME280;10165;42.662;23.260;2023-05-07T07:03:23;94371.25;;;16.60;54.62
20009;BME280;10165;42.662;23.260;2023-05-07T07:05:53;94372.56;;;16.81;54.47
20009;BME280;10165;42.662;23.260;2023-05-07T07:08:21;94373.50;;;17.13;53.89
20009;BME280;10165;42.662;23.260;2023-05-07T07:10:48;94371.53;;;16.48;55.53
20009;BME280;10165;42.662;23.260;2023-05-07T07:13:15;94373.16;;;17.29;53.55
20009;BME280;10165;42.662;23.260;2023-05-07T07:15:43;94369.47;;;17.61;52.46
20009;BME280;10165;42.662;23.260;2023-05-07T07:18:09;94367.97;;;17.78;50.96
20009;BME280;10165;42.662;23.260;2023-05-07T07:20:36;94369.50;;;17.83;50.54
20009;BME280;10165;42.662;23.260;2023-05-07T07:23:03;94366.41;;;17.81;50.83
20009;BME280;10165;42.662;23.260;2023-05-07T07:25:30;94365.47;;;17.34;51.84
20009;BME280;10165;42.662;23.260;2023-05-07T07:27:57;94363.31;;;17.79;51.80
20009;BME280;10165;42.662;23.260;2023-05-07T07:30:24;94363.34;;;18.17;50.54
20009;BME280;10165;42.662;23.260;2023-05-07T07:32:52;94361.97;;;17.23;51.98
20009;BME280;10165;42.662;23.260;2023-05-07T07:35:19;94365.28;;;18.03;50.86
20009;BME280;10165;42.662;23.260;2023-05-07T07:37:47;94360.66;;;18.39;49.49
20009;BME280;10165;42.662;23.260;2023-05-07T07:40:14;94366.41;;;17.84;49.54
20009;BME280;10165;42.662;23.260;2023-05-07T07:42:41;94371.81;;;17.84;49.90
20009;BME280;10165;42.662;23.260;2023-05-07T07:45:08;94373.38;;;17.99;50.16
20009;BME280;10165;42.662;23.260;2023-05-07T07:47:34;94368.00;;;18.45;48.68
20009;BME280;10165;42.662;23.260;2023-05-07T07:50:01;94380.34;;;18.00;48.53
20009;BME280;10165;42.662;23.260;2023-05-07T07:52:28;94376.13;;;18.52;48.29
20009;BME280;10165;42.662;23.260;2023-05-07T07:54:55;94378.81;;;18.49;47.58
20009;BME280;10165;42.662;23.260;2023-05-07T07:57:21;94371.81;;;19.04;46.83
20009;BME280;10165;42.662;23.260;2023-05-07T07:59:48;94369.53;;;18.89;47.18
20009;BME280;10165;42.662;23.260;2023-05-07T08:02:15;94370.31;;;18.93;46.55
20009;BME280;10165;42.662;23.260;2023-05-07T08:04:42;94373.41;;;18.59;47.49
20009;BME280;10165;42.662;23.260;2023-05-07T08:07:12;94371.13;;;18.58;47.98
20009;BME280;10165;42.662;23.260;2023-05-07T08:09:40;94367.97;;;18.91;46.75
20009;BME280;10165;42.662;23.260;2023-05-07T08:12:07;94368.00;;;18.35;48.20
20009;BME280;10165;42.662;23.260;2023-05-07T08:14:34;94366.78;;;19.03;47.27
20009;BME280;10165;42.662;23.260;2023-05-07T08:17:02;94365.31;;;18.77;46.65
20009;BME280;10165;42.662;23.260;2023-05-07T08:19:29;94363.94;;;19.45;45.63
20009;BME280;10165;42.662;23.260;2023-05-07T08:21:56;94353.22;;;19.10;45.85
20009;BME280;10165;42.662;23.260;2023-05-07T08:24:23;94355.56;;;19.04;45.86
20009;BME280;10165;42.662;23.260;2023-05-07T08:26:49;94355.03;;;19.48;44.52
20009;BME280;10165;42.662;23.260;2023-05-07T08:29:16;94353.63;;;19.92;43.53
20009;BME280;10165;42.662;23.260;2023-05-07T08:31:43;94355.50;;;20.02;44.53
20009;BME280;10165;42.662;23.260;2023-05-07T08:34:09;94356.72;;;19.90;43.86
20009;BME280;10165;42.662;23.260;2023-05-07T08:36:36;94351.34;;;19.87;43.90
20009;BME280;10165;42.662;23.260;2023-05-07T08:39:03;94349.75;;;19.06;45.68
20009;BME280;10165;42.662;23.260;2023-05-07T08:41:30;94340.97;;;19.71;44.46
20009;BME280;10165;42.662;23.260;2023-05-07T08:43:59;94342.19;;;19.63;44.22
20009;BME280;10165;42.662;23.260;2023-05-07T08:46:31;94350.31;;;19.60;44.27
20009;BME280;10165;42.662;23.260;2023-05-07T08:48:58;94339.00;;;19.79;44.07
20009;BME280;10165;42.662;23.260;2023-05-07T08:51:25;94345.97;;;19.80;43.24
20009;BME280;10165;42.662;23.260;2023-05-07T08:53:52;94341.25;;;19.91;44.29
20009;BME280;10165;42.662;23.260;2023-05-07T08:56:18;94334.22;;;20.00;43.12
20009;BME280;10165;42.662;23.260;2023-05-07T08:58:48;94331.28;;;20.32;43.00
20009;BME280;10165;42.662;23.260;2023-05-07T09:01:16;94331.94;;;20.43;42.26
20009;BME280;10165;42.662;23.260;2023-05-07T09:03:46;94328.94;;;20.34;41.84
20009;BME280;10165;42.662;23.260;2023-05-07T09:06:13;94335.91;;;20.32;41.80
20009;BME280;10165;42.662;23.260;2023-05-07T09:08:40;94328.47;;;20.43;41.68
20009;BME280;10165;42.662;23.260;2023-05-07T09:11:07;94326.66;;;20.70;41.50
20009;BME280;10165;42.662;23.260;2023-05-07T09:13:33;94321.34;;;20.60;41.84
20009;BME280;10165;42.662;23.260;2023-05-07T09:16:10;94318.13;;;20.72;40.91
20009;BME280;10165;42.662;23.260;2023-05-07T09:18:41;94310.19;;;20.50;41.82
20009;BME280;10165;42.662;23.260;2023-05-07T09:21:15;94318.22;;;20.61;40.94
20009;BME280;10165;42.662;23.260;2023-05-07T09:23:42;94319.03;;;20.58;40.74
20009;BME280;10165;42.662;23.260;2023-05-07T09:26:09;94319.78;;;20.59;38.10
20009;BME280;10165;42.662;23.260;2023-05-07T09:28:41;94314.31;;;20.66;37.65
20009;BME280;10165;42.662;23.260;2023-05-07T09:31:09;94303.00;;;21.12;39.24
20009;BME280;10165;42.662;23.260;2023-05-07T09:33:37;94310.56;;;21.58;38.90
20009;BME280;10165;42.662;23.260;2023-05-07T09:36:08;94308.00;;;21.10;36.99
20009;BME280;10165;42.662;23.260;2023-05-07T09:38:36;94305.41;;;20.99;37.27
20009;BME280;10165;42.662;23.260;2023-05-07T09:41:11;94301.16;;;21.62;37.15
20009;BME280;10165;42.662;23.260;2023-05-07T09:43:40;94304.84;;;21.75;36.96
20009;BME280;10165;42.662;23.260;2023-05-07T09:46:14;94300.22;;;22.03;36.91
20009;BME280;10165;42.662;23.260;2023-05-07T09:48:43;94302.69;;;21.63;38.54
20009;BME280;10165;42.662;23.260;2023-05-07T09:51:17;94296.81;;;21.68;38.07
20009;BME280;10165;42.662;23.260;2023-05-07T09:53:45;94301.69;;;21.54;37.63
20009;BME280;10165;42.662;23.260;2023-05-07T09:56:13;94291.25;;;21.49;38.34
20009;BME280;10165;42.662;23.260;2023-05-07T09:58:41;94297.47;;;21.49;38.27
20009;BME280;10165;42.662;23.260;2023-05-07T10:01:10;94299.19;;;21.63;37.27
20009;BME280;10165;42.662;23.260;2023-05-07T10:03:41;94292.84;;;22.26;36.26
20009;BME280;10165;42.662;23.260;2023-05-07T10:06:09;94291.03;;;21.63;36.10
20009;BME280;10165;42.662;23.260;2023-05-07T10:08:37;94295.19;;;21.14;35.47
20009;BME280;10165;42.662;23.260;2023-05-07T10:11:05;94290.38;;;21.25;37.02
20009;BME280;10165;42.662;23.260;2023-05-07T10:13:35;94290.16;;;21.73;37.17
20009;BME280;10165;42.662;23.260;2023-05-07T10:16:06;94291.78;;;21.67;36.67
20009;BME280;10165;42.662;23.260;2023-05-07T10:18:33;94289.94;;;21.60;36.25
20009;BME280;10165;42.662;23.260;2023-05-07T10:21:44;94271.56;;;21.95;36.36
20009;BME280;10165;42.662;23.260;2023-05-07T10:24:21;94275.50;;;22.17;35.93
20009;BME280;10165;42.662;23.260;2023-05-07T10:26:51;94275.50;;;21.90;35.05
20009;BME280;10165;42.662;23.260;2023-05-07T10:29:28;94274.44;;;21.84;34.51
20009;BME280;10165;42.662;23.260;2023-05-07T10:32:18;94263.19;;;20.94;35.20
20009;BME280;10165;42.662;23.260;2023-05-07T10:34:50;94265.53;;;21.26;35.21
20009;BME280;10165;42.662;23.260;2023-05-07T10:37:19;94258.00;;;21.37;35.58
20009;BME280;10165;42.662;23.260;2023-05-07T10:39:46;94256.75;;;21.45;35.86
20009;BME280;10165;42.662;23.260;2023-05-07T10:42:14;94257.75;;;21.55;35.29
20009;BME280;10165;42.662;23.260;2023-05-07T10:44:41;94255.47;;;21.54;35.49
20009;BME280;10165;42.662;23.260;2023-05-07T10:47:12;94257.56;;;21.96;34.51
20009;BME280;10165;42.662;23.260;2023-05-07T10:52:17;94255.19;;;21.71;34.99
20009;BME280;10165;42.662;23.260;2023-05-07T10:54:44;94246.88;;;21.82;34.92
20009;BME280;10165;42.662;23.260;2023-05-07T10:57:33;94247.50;;;21.39;34.78
20009;BME280;10165;42.662;23.260;2023-05-07T11:03:04;94243.91;;;22.66;33.97
20009;BME280;10165;42.662;23.260;2023-05-07T11:05:33;94235.72;;;22.89;33.56
20009;BME280;10165;42.662;23.260;2023-05-07T11:08:04;94249.06;;;23.03;33.74
20009;BME280;10165;42.662;23.260;2023-05-07T11:13:17;94235.84;;;23.21;32.82
20009;BME280;10165;42.662;23.260;2023-05-07T11:15:48;94233.75;;;22.70;33.12
20009;BME280;10165;42.662;23.260;2023-05-07T11:18:16;94233.81;;;22.86;33.11
20009;BME280;10165;42.662;23.260;2023-05-07T11:20:57;94228.53;;;22.99;31.84
20009;BME280;10165;42.662;23.260;2023-05-07T11:26:10;94221.34;;;22.46;32.65
20009;BME280;10165;42.662;23.260;2023-05-07T11:28:38;94223.63;;;22.70;33.51
20009;BME280;10165;42.662;23.260;2023-05-07T11:31:06;94218.88;;;22.94;32.38
20009;BME280;10165;42.662;23.260;2023-05-07T11:33:33;94225.66;;;22.86;31.99
20009;BME280;10165;42.662;23.260;2023-05-07T11:36:03;94223.69;;;23.06;31.52
20009;BME280;10165;42.662;23.260;2023-05-07T11:38:30;94221.34;;;22.69;30.98
20009;BME280;10165;42.662;23.260;2023-05-07T11:41:01;94229.59;;;22.42;32.23
20009;BME280;10165;42.662;23.260;2023-05-07T11:43:28;94217.34;;;22.30;32.08
20009;BME280;10165;42.662;23.260;2023-05-07T11:46:05;94212.78;;;22.24;32.33
20009;BME280;10165;42.662;23.260;2023-05-07T11:48:32;94215.19;;;22.42;32.32
20009;BME280;10165;42.662;23.260;2023-05-07T11:53:26;94211.66;;;23.04;31.88
20009;BME280;10165;42.662;23.260;2023-05-07T11:55:55;94209.75;;;23.20;31.35
20009;BME280;10165;42.662;23.260;2023-05-07T11:58:23;94205.28;;;22.51;32.20
20009;BME280;10165;42.662;23.260;2023-05-07T12:00:51;94208.84;;;22.05;32.83
20009;BME280;10165;42.662;23.260;2023-05-07T12:03:18;94199.03;;;23.13;32.06
20009;BME280;10165;42.662;23.260;2023-05-07T12:05:47;94200.28;;;23.09;31.84
20009;BME280;10165;42.662;23.260;2023-05-07T12:08:18;94199.72;;;23.17;31.41
20009;BME280;10165;42.662;23.260;2023-05-07T12:10:47;94198.81;;;22.45;31.67
20009;BME280;10165;42.662;23.260;2023-05-07T12:13:17;94197.88;;;22.75;31.25
20009;BME280;10165;42.662;23.260;2023-05-07T12:15:44;94200.72;;;23.07;30.40
20009;BME280;10165;42.662;23.260;2023-05-07T12:18:12;94191.38;;;23.60;30.87
20009;BME280;10165;42.662;23.260;2023-05-07T12:20:39;94187.47;;;23.77;30.18
20009;BME280;10165;42.662;23.260;2023-05-07T12:23:06;94186.00;;;23.89;30.42
20009;BME280;10165;42.662;23.260;2023-05-07T12:25:37;94174.50;;;23.65;30.16
20009;BME280;10165;42.662;23.260;2023-05-07T12:28:05;94176.03;;;23.83;29.99
20009;BME280;10165;42.662;23.260;2023-05-07T12:30:36;94169.09;;;23.29;30.21
20009;BME280;10165;42.662;23.260;2023-05-07T12:33:03;94167.94;;;23.63;30.16
20009;BME280;10165;42.662;23.260;2023-05-07T12:35:31;94177.81;;;23.89;29.70
20009;BME280;10165;42.662;23.260;2023-05-07T12:37:59;94161.13;;;23.71;29.55
20009;BME280;10165;42.662;23.260;2023-05-07T12:40:50;94167.34;;;23.88;29.68
20009;BME280;10165;42.662;23.260;2023-05-07T12:43:27;94158.81;;;23.86;30.07
20009;BME280;10165;42.662;23.260;2023-05-07T12:45:56;94156.16;;;23.50;30.35
20009;BME280;10165;42.662;23.260;2023-05-07T12:48:23;94149.13;;;23.16;30.63
20009;BME280;10165;42.662;23.260;2023-05-07T12:50:54;94146.16;;;22.52;30.72
20009;BME280;10165;42.662;23.260;2023-05-07T12:53:23;94143.00;;;22.93;32.07
20009;BME280;10165;42.662;23.260;2023-05-07T12:55:53;94146.66;;;23.38;29.82
20009;BME280;10165;42.662;23.260;2023-05-07T12:58:28;94141.09;;;23.09;30.39
20009;BME280;10165;42.662;23.260;2023-05-07T13:00:56;94137.72;;;22.85;30.04
20009;BME280;10165;42.662;23.260;2023-05-07T13:05:58;94138.38;;;23.09;30.03
20009;BME280;10165;42.662;23.260;2023-05-07T13:08:28;94143.53;;;23.40;29.94
20009;BME280;10165;42.662;23.260;2023-05-07T13:10:57;94125.06;;;23.79;29.56